createdAt,value
2019-01-18T00:00:21.733Z,90.10
2019-01-18T00:01:21.723Z,90.10
2019-01-18T00:02:21.712Z,90.20
2019-01-18T00:03:21.699Z,90.41
2019-01-18T00:04:21.707Z,90.10
2019-01-18T00:05:29.458Z,90.52
2019-01-18T00:06:29.495Z,90.10
2019-01-18T00:07:21.659Z,90.72
2019-01-18T00:08:21.660Z,90.56
2019-01-18T00:09:21.632Z,90.52
2019-01-18T00:10:21.636Z,90.83
2019-01-18T00:11:21.618Z,91.28
2019-01-18T00:12:21.603Z,91.08
2019-01-18T00:13:29.523Z,90.66
2019-01-18T00:14:28.624Z,90.87
2019-01-18T00:15:21.584Z,91.39
2019-01-18T00:16:21.558Z,91.14
2019-01-18T00:17:30.586Z,91.18
2019-01-18T00:18:29.125Z,91.08
2019-01-18T00:19:21.530Z,91.39
2019-01-18T00:20:21.530Z,91.14
2019-01-18T00:21:29.151Z,91.08
2019-01-18T00:22:21.498Z,91.28
2019-01-18T00:23:21.490Z,91.08
2019-01-18T00:24:21.476Z,90.87
2019-01-18T00:25:21.480Z,91.28
2019-01-18T00:26:21.475Z,91.60
2019-01-18T00:27:21.442Z,91.50
2019-01-18T00:28:21.437Z,90.66
2019-01-18T00:29:21.433Z,90.66
2019-01-18T00:30:21.414Z,90.56
2019-01-18T00:31:21.397Z,89.73
2019-01-18T00:32:21.400Z,89.94
2019-01-18T00:33:21.399Z,90.14
2019-01-18T00:34:21.371Z,90.56
2019-01-18T00:35:21.369Z,90.77
2019-01-18T00:36:21.346Z,90.25
2019-01-18T00:37:21.342Z,90.25
2019-01-18T00:38:21.328Z,90.70
2019-01-18T00:39:21.321Z,91.02
2019-01-18T00:40:21.305Z,90.81
2019-01-18T00:41:21.294Z,91.22
2019-01-18T00:42:21.319Z,90.87
2019-01-18T00:43:21.275Z,91.02
2019-01-18T00:44:21.263Z,91.02
2019-01-18T00:45:21.251Z,90.97
2019-01-18T00:46:21.243Z,91.22
2019-01-18T00:47:21.227Z,91.22
2019-01-18T00:48:21.232Z,91.22
2019-01-18T00:49:21.211Z,90.91
2019-01-18T00:50:21.200Z,90.91
2019-01-18T00:51:21.190Z,91.22
2019-01-18T00:52:21.178Z,91.39
2019-01-18T00:53:21.173Z,90.91
2019-01-18T00:54:21.156Z,90.19
2019-01-18T00:55:21.140Z,90.08
2019-01-18T00:56:21.135Z,90.85
2019-01-18T00:57:21.119Z,91.12
2019-01-18T00:58:21.156Z,91.27
2019-01-18T00:59:21.099Z,91.27
2019-01-18T01:00:21.087Z,91.27
2019-01-18T01:01:21.077Z,91.16
2019-01-18T01:02:21.067Z,91.53
2019-01-18T01:03:21.057Z,90.91
2019-01-18T01:04:21.062Z,90.19
2019-01-18T01:05:21.047Z,90.01
2019-01-18T01:06:21.028Z,90.50
2019-01-18T01:07:21.017Z,90.70
2019-01-18T01:08:21.001Z,89.66
2019-01-18T01:09:20.989Z,88.73
2019-01-18T01:10:20.988Z,89.56
2019-01-18T01:11:20.971Z,88.93
2019-01-18T01:12:20.963Z,89.10
2019-01-18T01:13:20.952Z,89.35
2019-01-18T01:14:20.937Z,89.00
2019-01-18T01:15:20.938Z,89.00
2019-01-18T01:16:20.921Z,88.68
2019-01-18T01:17:20.911Z,88.79
2019-01-18T01:18:20.900Z,88.73
2019-01-18T01:19:20.884Z,89.04
2019-01-18T01:20:20.912Z,88.93
2019-01-18T01:21:20.863Z,89.14
2019-01-18T01:22:20.857Z,89.45
2019-01-18T01:23:20.847Z,89.35
2019-01-18T01:24:20.829Z,89.76
2019-01-18T01:25:20.819Z,89.87
2019-01-18T01:26:20.864Z,90.39
2019-01-18T01:27:20.799Z,90.70
2019-01-18T01:28:20.789Z,90.70
2019-01-18T01:29:20.783Z,91.37
2019-01-18T01:30:20.772Z,91.27
2019-01-18T01:31:20.758Z,91.78
2019-01-18T01:32:20.755Z,92.62
2019-01-18T01:33:20.735Z,92.41
2019-01-18T01:34:20.727Z,93.56
2019-01-18T01:35:20.719Z,92.31
2019-01-18T01:36:20.708Z,92.14
2019-01-18T01:37:20.737Z,93.04
2019-01-18T01:38:20.682Z,92.93
2019-01-18T01:39:20.675Z,93.77
2019-01-18T01:40:20.664Z,93.14
2019-01-18T01:41:20.658Z,93.14
2019-01-18T01:42:20.639Z,92.72
2019-01-18T01:43:20.639Z,90.85
2019-01-18T01:44:20.616Z,91.37
2019-01-18T01:45:20.606Z,91.31
2019-01-18T01:46:20.600Z,90.79
2019-01-18T01:47:20.593Z,90.89
2019-01-18T01:48:20.583Z,90.68
2019-01-18T01:49:20.570Z,90.44
2019-01-18T01:50:20.558Z,89.85
2019-01-18T01:51:20.543Z,90.37
2019-01-18T01:52:20.533Z,90.44
2019-01-18T01:53:20.530Z,90.37
2019-01-18T01:54:20.528Z,90.58
2019-01-18T01:55:20.503Z,89.22
2019-01-18T01:56:20.492Z,90.58
2019-01-18T01:57:20.484Z,90.68
2019-01-18T01:58:20.481Z,89.85
2019-01-18T01:59:20.462Z,89.26
2019-01-18T02:00:20.485Z,89.06
2019-01-18T02:01:20.438Z,89.12
2019-01-18T02:02:20.427Z,88.95
2019-01-18T02:03:20.418Z,87.70
2019-01-18T02:04:20.405Z,89.26
2019-01-18T02:05:20.393Z,90.56
2019-01-18T02:06:20.398Z,89.78
2019-01-18T02:07:20.377Z,89.68
2019-01-18T02:08:20.367Z,89.78
2019-01-18T02:09:20.370Z,89.58
2019-01-18T02:10:20.345Z,88.85
2019-01-18T02:11:20.366Z,88.75
2019-01-18T02:12:20.325Z,88.57
2019-01-18T02:13:20.318Z,87.63
2019-01-18T02:14:20.303Z,87.53
2019-01-18T02:15:20.295Z,87.74
2019-01-18T02:16:20.278Z,87.01
2019-01-18T02:17:20.279Z,87.12
2019-01-18T02:18:20.264Z,87.05
2019-01-18T02:19:20.252Z,87.22
2019-01-18T02:20:20.236Z,86.91
2019-01-18T02:21:20.240Z,87.12
2019-01-18T02:22:20.215Z,87.22
2019-01-18T02:23:20.210Z,86.59
2019-01-18T02:24:20.194Z,86.21
2019-01-18T02:25:20.184Z,87.05
2019-01-18T02:26:20.182Z,86.94
2019-01-18T02:27:20.163Z,87.43
2019-01-18T02:28:20.161Z,87.22
2019-01-18T02:29:20.147Z,86.84
2019-01-18T02:30:20.137Z,86.32
2019-01-18T02:31:20.134Z,86.32
2019-01-18T02:32:20.114Z,86.74
2019-01-18T02:33:20.110Z,86.84
2019-01-18T02:34:20.112Z,86.94
2019-01-18T02:35:20.082Z,86.74
2019-01-18T02:36:20.067Z,86.94
2019-01-18T02:37:20.063Z,86.43
2019-01-18T02:38:20.051Z,86.94
2019-01-18T02:39:20.040Z,87.05
2019-01-18T02:40:20.037Z,87.47
2019-01-18T02:41:20.019Z,87.57
2019-01-18T02:42:20.008Z,88.20
2019-01-18T02:43:19.998Z,88.78
2019-01-18T02:44:19.986Z,88.82
2019-01-18T02:45:19.976Z,89.20
2019-01-18T02:46:19.978Z,88.99
2019-01-18T02:47:19.950Z,89.31
2019-01-18T02:48:19.950Z,89.72
2019-01-18T02:49:19.930Z,89.62
2019-01-18T02:50:19.917Z,89.62
2019-01-18T02:51:19.916Z,89.20
2019-01-18T02:52:19.902Z,88.89
2019-01-18T02:53:19.903Z,88.68
2019-01-18T02:54:19.879Z,87.95
2019-01-18T02:55:19.869Z,87.53
2019-01-18T02:56:19.868Z,87.12
2019-01-18T02:57:19.859Z,86.91
2019-01-18T02:58:19.838Z,87.01
2019-01-18T02:59:19.829Z,86.94
2019-01-18T03:00:19.813Z,87.22
2019-01-18T03:01:19.817Z,87.32
2019-01-18T03:02:19.790Z,88.20
2019-01-18T03:03:19.779Z,87.99
2019-01-18T03:04:19.774Z,89.07
2019-01-18T03:05:19.779Z,90.60
2019-01-18T03:06:19.754Z,89.97
2019-01-18T03:07:19.743Z,90.22
2019-01-18T03:08:19.735Z,90.39
2019-01-18T03:09:19.717Z,90.64
2019-01-18T03:10:19.713Z,91.43
2019-01-18T03:11:19.732Z,91.43
2019-01-18T03:12:19.691Z,91.02
2019-01-18T03:13:19.676Z,91.22
2019-01-18T03:14:19.668Z,90.56
2019-01-18T03:15:19.653Z,88.51
2019-01-18T03:16:19.652Z,89.56
2019-01-18T03:17:19.662Z,90.53
2019-01-18T03:18:19.629Z,89.97
2019-01-18T03:19:19.616Z,89.45
2019-01-18T03:20:19.607Z,89.45
2019-01-18T03:21:19.595Z,89.76
2019-01-18T03:22:19.586Z,89.56
2019-01-18T03:23:19.577Z,89.24
2019-01-18T03:24:19.570Z,89.24
2019-01-18T03:25:19.547Z,88.82
2019-01-18T03:26:19.542Z,88.72
2019-01-18T03:27:19.535Z,87.78
2019-01-18T03:28:19.571Z,87.78
2019-01-18T03:29:19.505Z,87.68
2019-01-18T03:30:20.451Z,87.57
2019-01-18T03:31:19.487Z,87.37
2019-01-18T03:32:19.481Z,87.22
2019-01-18T03:33:19.500Z,86.94
2019-01-18T03:34:19.486Z,87.01
2019-01-18T03:35:19.447Z,87.15
2019-01-18T03:36:19.431Z,87.15
2019-01-18T03:37:19.427Z,86.84
2019-01-18T03:38:19.409Z,87.57
2019-01-18T03:39:19.405Z,86.67
2019-01-18T03:40:19.410Z,87.05
2019-01-18T03:41:19.379Z,86.74
2019-01-18T03:42:19.366Z,87.09
2019-01-18T03:43:19.355Z,86.46
2019-01-18T03:44:19.356Z,87.09
2019-01-18T03:45:19.349Z,87.34
2019-01-18T03:46:19.325Z,87.02
2019-01-18T03:47:19.314Z,87.30
2019-01-18T03:48:19.309Z,87.13
2019-01-18T03:49:19.300Z,87.45
2019-01-18T03:50:19.289Z,87.82
2019-01-18T03:51:19.273Z,87.19
2019-01-18T03:52:19.261Z,87.30
2019-01-18T03:53:19.249Z,87.19
2019-01-18T03:54:19.259Z,86.77
2019-01-18T03:55:19.249Z,87.09
2019-01-18T03:56:19.221Z,87.13
2019-01-18T03:57:19.211Z,87.34
2019-01-18T03:58:19.210Z,87.55
2019-01-18T03:59:19.196Z,87.23
2019-01-18T04:00:25.856Z,87.55
2019-01-18T04:01:20.170Z,87.23
2019-01-18T04:02:19.163Z,87.13
2019-01-18T04:03:19.153Z,87.45
2019-01-18T04:04:19.131Z,87.65
2019-01-18T04:05:19.121Z,87.65
2019-01-18T04:06:19.133Z,87.65
2019-01-18T04:07:19.101Z,87.55
2019-01-18T04:08:19.089Z,87.45
2019-01-18T04:09:19.091Z,87.61
2019-01-18T04:10:19.068Z,87.40
2019-01-18T04:11:19.100Z,87.40
2019-01-18T04:12:19.050Z,87.19
2019-01-18T04:13:19.036Z,87.19
2019-01-18T04:14:19.032Z,87.45
2019-01-18T04:15:19.022Z,87.51
2019-01-18T04:16:19.012Z,87.51
2019-01-18T04:17:19.010Z,87.09
2019-01-18T04:18:19.004Z,87.30
2019-01-18T04:19:24.589Z,87.09
2019-01-18T04:20:18.999Z,87.09
2019-01-18T04:21:18.958Z,86.36
2019-01-18T04:22:18.945Z,86.67
2019-01-18T04:23:18.942Z,87.19
2019-01-18T04:24:18.922Z,86.77
2019-01-18T04:25:18.940Z,86.77
2019-01-18T04:26:18.905Z,86.88
2019-01-18T04:27:18.911Z,86.84
2019-01-18T04:28:18.910Z,86.53
2019-01-18T04:29:18.863Z,86.43
2019-01-18T04:30:18.856Z,86.43
2019-01-18T04:31:18.843Z,86.99
2019-01-18T04:32:18.837Z,86.43
2019-01-18T04:33:18.829Z,86.53
2019-01-18T04:34:18.826Z,86.53
2019-01-18T04:35:18.801Z,86.43
2019-01-18T04:36:18.795Z,87.05
2019-01-18T04:37:18.821Z,87.68
2019-01-18T04:38:18.771Z,87.47
2019-01-18T04:39:18.767Z,86.43
2019-01-18T04:40:18.763Z,86.53
2019-01-18T04:41:18.740Z,86.63
2019-01-18T04:42:18.733Z,84.86
2019-01-18T04:43:18.737Z,84.92
2019-01-18T04:44:18.710Z,85.06
2019-01-18T04:45:18.697Z,85.49
2019-01-18T04:46:18.685Z,85.06
2019-01-18T04:47:18.679Z,85.90
2019-01-18T04:48:18.685Z,85.06
2019-01-18T04:49:18.652Z,85.06
2019-01-18T04:50:18.648Z,85.06
2019-01-18T04:51:18.636Z,84.96
2019-01-18T04:52:18.629Z,85.06
2019-01-18T04:53:18.624Z,85.17
2019-01-18T04:54:18.615Z,85.06
2019-01-18T04:55:18.595Z,84.75
2019-01-18T04:56:18.581Z,84.75
2019-01-18T04:57:18.571Z,84.96
2019-01-18T04:58:18.566Z,85.17
2019-01-18T04:59:18.585Z,84.96
2019-01-18T05:00:18.536Z,85.06
2019-01-18T05:01:18.530Z,85.59
2019-01-18T05:02:18.516Z,84.86
2019-01-18T05:03:18.510Z,84.65
2019-01-18T05:04:18.495Z,84.96
2019-01-18T05:05:18.497Z,84.61
2019-01-18T05:06:26.185Z,84.96
2019-01-18T05:07:18.471Z,85.17
2019-01-18T05:08:18.465Z,84.75
2019-01-18T05:09:18.444Z,84.75
2019-01-18T05:10:18.434Z,85.27
2019-01-18T05:11:18.425Z,85.34
2019-01-18T05:12:18.415Z,84.96
2019-01-18T05:13:18.430Z,84.86
2019-01-18T05:14:18.388Z,84.96
2019-01-18T05:15:18.379Z,85.38
2019-01-18T05:16:18.367Z,85.38
2019-01-18T05:17:18.361Z,84.61
2019-01-18T05:18:18.354Z,84.61
2019-01-18T05:19:18.370Z,84.30
2019-01-18T05:20:18.330Z,84.61
2019-01-18T05:21:18.329Z,84.82
2019-01-18T05:22:18.309Z,84.82
2019-01-18T05:23:18.293Z,84.72
2019-01-18T05:24:18.282Z,84.30
2019-01-18T05:25:18.286Z,84.30
2019-01-18T05:26:18.261Z,84.09
2019-01-18T05:27:18.255Z,84.19
2019-01-18T05:28:18.242Z,83.47
2019-01-18T05:29:18.234Z,83.08
2019-01-18T05:30:18.231Z,82.67
2019-01-18T05:31:18.217Z,82.46
2019-01-18T05:32:18.203Z,82.46
2019-01-18T05:33:18.202Z,82.42
2019-01-18T05:34:18.181Z,82.56
2019-01-18T05:35:18.170Z,82.98
2019-01-18T05:36:18.161Z,83.08
2019-01-18T05:37:18.145Z,83.47
2019-01-18T05:38:18.149Z,83.29
2019-01-18T05:39:18.130Z,83.18
2019-01-18T05:40:18.122Z,82.77
2019-01-18T05:41:18.110Z,82.87
2019-01-18T05:42:18.099Z,81.93
2019-01-18T05:43:18.081Z,80.79
2019-01-18T05:44:18.112Z,79.01
2019-01-18T05:45:18.062Z,79.43
2019-01-18T05:46:18.058Z,80.05
2019-01-18T05:47:18.039Z,79.78
2019-01-18T05:48:18.031Z,79.74
2019-01-18T05:49:18.026Z,79.68
2019-01-18T05:50:18.020Z,79.78
2019-01-18T05:51:18.000Z,79.68
2019-01-18T05:52:17.996Z,78.94
2019-01-18T05:53:17.974Z,77.80
2019-01-18T05:54:18.000Z,78.21
2019-01-18T05:55:17.969Z,78.53
2019-01-18T05:56:17.942Z,77.59
2019-01-18T05:57:17.938Z,77.59
2019-01-18T05:58:17.929Z,76.75
2019-01-18T05:59:17.915Z,75.81
2019-01-18T06:00:17.935Z,75.60
2019-01-18T06:01:17.895Z,75.39
2019-01-18T06:02:17.887Z,74.87
2019-01-18T06:03:17.871Z,73.75
2019-01-18T06:04:17.865Z,74.18
2019-01-18T06:05:17.845Z,74.18
2019-01-18T06:06:17.845Z,74.49
2019-01-18T06:07:17.827Z,73.55
2019-01-18T06:08:17.820Z,73.44
2019-01-18T06:09:17.808Z,73.13
2019-01-18T06:10:17.800Z,73.34
2019-01-18T06:11:17.795Z,73.02
2019-01-18T06:12:17.776Z,73.24
2019-01-18T06:13:17.760Z,73.44
2019-01-18T06:14:17.751Z,72.40
2019-01-18T06:15:17.745Z,72.30
2019-01-18T06:16:17.737Z,73.24
2019-01-18T06:17:17.756Z,72.71
2019-01-18T06:18:17.710Z,73.02
2019-01-18T06:19:17.708Z,73.02
2019-01-18T06:20:17.689Z,73.65
2019-01-18T06:21:17.685Z,72.81
2019-01-18T06:22:17.677Z,73.24
2019-01-18T06:23:17.669Z,72.19
2019-01-18T06:24:17.647Z,72.19
2019-01-18T06:25:17.651Z,72.19
2019-01-18T06:26:17.622Z,72.40
2019-01-18T06:27:17.624Z,72.71
2019-01-18T06:28:17.599Z,72.81
2019-01-18T06:29:17.599Z,72.40
2019-01-18T06:30:17.587Z,72.30
2019-01-18T06:31:17.575Z,72.92
2019-01-18T06:32:17.581Z,73.02
2019-01-18T06:33:17.553Z,73.02
2019-01-18T06:34:17.536Z,72.50
2019-01-18T06:35:17.532Z,72.40
2019-01-18T06:36:17.524Z,72.30
2019-01-18T06:37:17.510Z,72.40
2019-01-18T06:38:17.528Z,72.08
2019-01-18T06:39:17.491Z,72.40
2019-01-18T06:40:17.473Z,72.40
2019-01-18T06:41:17.462Z,72.30
2019-01-18T06:42:17.453Z,72.75
2019-01-18T06:43:17.446Z,73.02
2019-01-18T06:44:17.491Z,73.02
2019-01-18T06:45:17.471Z,73.34
2019-01-18T06:46:17.415Z,73.44
2019-01-18T06:47:17.405Z,73.02
2019-01-18T06:48:17.388Z,72.40
2019-01-18T06:49:17.382Z,71.67
2019-01-18T06:50:17.371Z,72.08
2019-01-18T06:51:17.381Z,72.22
2019-01-18T06:52:17.348Z,72.30
2019-01-18T06:53:17.340Z,72.33
2019-01-18T06:54:17.325Z,72.50
2019-01-18T06:55:17.319Z,72.61
2019-01-18T06:56:17.310Z,73.13
2019-01-18T06:57:17.314Z,73.13
2019-01-18T06:58:17.287Z,73.02
2019-01-18T06:59:17.277Z,72.50
2019-01-18T07:00:17.270Z,72.30
2019-01-18T07:01:17.291Z,72.43
2019-01-18T07:02:17.243Z,72.30
2019-01-18T07:03:17.237Z,71.77
2019-01-18T07:04:17.218Z,72.33
2019-01-18T07:05:17.209Z,73.27
2019-01-18T07:06:17.204Z,72.96
2019-01-18T07:07:17.208Z,73.16
2019-01-18T07:08:17.182Z,73.02
2019-01-18T07:09:17.176Z,73.06
2019-01-18T07:10:20.925Z,73.24
2019-01-18T07:11:17.145Z,72.30
2019-01-18T07:12:17.150Z,72.22
2019-01-18T07:13:17.130Z,72.43
2019-01-18T07:14:17.125Z,72.12
2019-01-18T07:15:17.111Z,71.59
2019-01-18T07:16:17.098Z,71.59
2019-01-18T07:17:17.086Z,71.70
2019-01-18T07:18:17.083Z,72.12
2019-01-18T07:19:17.070Z,72.12
2019-01-18T07:20:17.062Z,71.91
2019-01-18T07:21:17.047Z,72.15
2019-01-18T07:22:17.034Z,72.33
2019-01-18T07:23:17.038Z,72.99
2019-01-18T07:24:17.060Z,72.64
2019-01-18T07:25:16.996Z,72.57
2019-01-18T07:26:16.993Z,72.67
2019-01-18T07:27:16.975Z,72.96
2019-01-18T07:28:16.973Z,72.78
2019-01-18T07:29:16.960Z,72.85
2019-01-18T07:30:16.959Z,72.96
2019-01-18T07:31:16.939Z,73.09
2019-01-18T07:32:16.927Z,73.41
2019-01-18T07:33:16.917Z,75.88
2019-01-18T07:34:16.914Z,73.79
2019-01-18T07:35:16.938Z,73.27
2019-01-18T07:36:16.890Z,72.88
2019-01-18T07:37:16.875Z,72.33
2019-01-18T07:38:16.881Z,71.84
2019-01-18T07:39:22.332Z,72.25
2019-01-18T07:40:17.906Z,72.33
2019-01-18T07:41:16.836Z,72.36
2019-01-18T07:42:16.825Z,72.05
2019-01-18T07:43:16.813Z,72.05
2019-01-18T07:44:16.803Z,72.99
2019-01-18T07:45:16.793Z,74.87
2019-01-18T07:46:16.825Z,74.04
2019-01-18T07:47:16.771Z,73.47
2019-01-18T07:48:16.763Z,73.79
2019-01-18T07:49:16.744Z,72.33
2019-01-18T07:50:20.105Z,71.56
2019-01-18T07:51:16.728Z,70.48
2019-01-18T07:52:16.728Z,70.45
2019-01-18T07:53:16.708Z,68.85
2019-01-18T07:54:16.720Z,69.97
2019-01-18T07:55:16.686Z,68.10
2019-01-18T07:56:16.693Z,68.30
2019-01-18T07:57:16.663Z,67.92
2019-01-18T07:58:16.655Z,67.92
2019-01-18T07:59:16.649Z,67.74
2019-01-18T08:00:16.633Z,68.37
2019-01-18T08:01:21.994Z,68.89
2019-01-18T08:02:17.619Z,69.41
2019-01-18T08:03:16.600Z,69.51
2019-01-18T08:04:16.585Z,69.65
2019-01-18T08:05:16.573Z,70.04
2019-01-18T08:06:16.582Z,69.72
2019-01-18T08:07:16.569Z,69.41
2019-01-18T08:08:16.542Z,69.10
2019-01-18T08:09:16.531Z,69.41
2019-01-18T08:10:16.527Z,69.07
2019-01-18T08:11:16.521Z,68.20
2019-01-18T08:12:16.523Z,68.27
2019-01-18T08:13:16.501Z,67.10
2019-01-18T08:14:16.495Z,65.95
2019-01-18T08:15:16.473Z,66.36
2019-01-18T08:16:16.457Z,65.77
2019-01-18T08:17:16.458Z,65.53
2019-01-18T08:18:16.451Z,65.64
2019-01-18T08:19:16.439Z,66.05
2019-01-18T08:20:16.416Z,66.19
2019-01-18T08:21:16.405Z,66.63
2019-01-18T08:22:16.394Z,67.16
2019-01-18T08:23:16.424Z,67.68
2019-01-18T08:24:16.374Z,68.82
2019-01-18T08:25:16.364Z,68.48
2019-01-18T08:26:16.352Z,68.30
2019-01-18T08:27:16.352Z,67.65
2019-01-18T08:28:16.336Z,67.75
2019-01-18T08:29:16.361Z,67.54
2019-01-18T08:30:16.309Z,67.61
2019-01-18T08:31:16.299Z,67.61
2019-01-18T08:32:16.293Z,67.20
2019-01-18T08:33:16.290Z,67.93
2019-01-18T08:34:16.275Z,68.45
2019-01-18T08:35:16.272Z,67.38
2019-01-18T08:36:16.244Z,67.90
2019-01-18T08:37:16.236Z,67.38
2019-01-18T08:38:16.231Z,67.86
2019-01-18T08:39:16.213Z,68.18
2019-01-18T08:40:16.214Z,68.38
2019-01-18T08:41:16.198Z,69.15
2019-01-18T08:42:16.188Z,69.43
2019-01-18T08:43:16.188Z,67.76
2019-01-18T08:44:16.164Z,68.07
2019-01-18T08:45:16.235Z,67.35
2019-01-18T08:46:16.144Z,67.66
2019-01-18T08:47:16.130Z,67.66
2019-01-18T08:48:16.124Z,67.00
2019-01-18T08:49:16.111Z,66.80
2019-01-18T08:50:16.099Z,66.38
2019-01-18T08:51:16.101Z,65.86
2019-01-18T08:52:16.077Z,66.14
2019-01-18T08:53:16.071Z,65.72
2019-01-18T08:54:16.060Z,66.66
2019-01-18T08:55:16.046Z,65.90
2019-01-18T08:56:16.736Z,65.66
2019-01-18T08:57:16.026Z,65.63
2019-01-18T08:58:16.018Z,65.14
2019-01-18T08:59:16.000Z,65.42
2019-01-18T09:00:15.994Z,66.33
2019-01-18T09:01:15.981Z,65.50
2019-01-18T09:02:15.981Z,65.06
2019-01-18T09:03:15.961Z,64.54
2019-01-18T09:04:15.960Z,63.50
2019-01-18T09:05:15.944Z,63.68
2019-01-18T09:06:15.928Z,62.98
2019-01-18T09:07:15.933Z,62.85
2019-01-18T09:08:15.902Z,62.85
2019-01-18T09:09:15.896Z,62.64
2019-01-18T09:10:15.889Z,62.23
2019-01-18T09:11:15.870Z,62.40
2019-01-18T09:12:15.862Z,62.40
2019-01-18T09:13:15.874Z,61.86
2019-01-18T09:14:19.454Z,62.16
2019-01-18T09:15:15.834Z,61.03
2019-01-18T09:16:15.830Z,62.51
2019-01-18T09:17:15.809Z,62.30
2019-01-18T09:18:15.802Z,61.26
2019-01-18T09:19:15.791Z,61.91
2019-01-18T09:20:15.810Z,62.85
2019-01-18T09:21:15.766Z,63.06
2019-01-18T09:22:15.755Z,63.47
2019-01-18T09:23:15.760Z,62.82
2019-01-18T09:24:15.733Z,62.33
2019-01-18T09:25:15.723Z,62.82
2019-01-18T09:26:15.718Z,62.19
2019-01-18T09:27:15.697Z,63.06
2019-01-18T09:28:15.694Z,62.23
2019-01-18T09:29:15.683Z,62.54
2019-01-18T09:30:15.670Z,64.23
2019-01-18T09:31:15.664Z,64.02
2019-01-18T09:32:15.649Z,64.09
2019-01-18T09:33:15.645Z,64.06
2019-01-18T09:34:15.685Z,64.17
2019-01-18T09:35:15.623Z,63.54
2019-01-18T09:36:15.605Z,62.79
2019-01-18T09:37:15.592Z,63.10
2019-01-18T09:38:17.910Z,62.16
2019-01-18T09:39:15.578Z,61.00
2019-01-18T09:40:15.619Z,61.21
2019-01-18T09:41:15.556Z,61.13
2019-01-18T09:42:15.539Z,60.79
2019-01-18T09:43:15.524Z,61.34
2019-01-18T09:44:15.512Z,62.68
2019-01-18T09:45:15.503Z,62.58
2019-01-18T09:46:15.505Z,60.95
2019-01-18T09:47:15.486Z,60.93
2019-01-18T09:48:15.469Z,61.55
2019-01-18T09:49:15.495Z,60.82
2019-01-18T09:50:15.453Z,61.55
2019-01-18T09:51:15.448Z,61.96
2019-01-18T09:52:15.440Z,62.16
2019-01-18T09:53:15.420Z,61.65
2019-01-18T09:54:15.409Z,61.44
2019-01-18T09:55:15.393Z,61.13
2019-01-18T09:56:15.438Z,61.03
2019-01-18T09:57:15.373Z,61.03
2019-01-18T09:58:15.367Z,61.03
2019-01-18T09:59:15.354Z,61.10
2019-01-18T10:00:15.346Z,60.14
2019-01-18T10:01:15.332Z,59.94
2019-01-18T10:02:15.328Z,60.22
2019-01-18T10:03:15.331Z,60.14
2019-01-18T10:04:15.304Z,60.58
2019-01-18T10:05:15.292Z,60.79
2019-01-18T10:06:15.274Z,60.66
2019-01-18T10:07:15.264Z,60.01
2019-01-18T10:08:15.268Z,60.25
2019-01-18T10:09:15.249Z,59.58
2019-01-18T10:10:15.236Z,60.10
2019-01-18T10:11:15.221Z,60.72
2019-01-18T10:12:15.254Z,60.82
2019-01-18T10:13:15.201Z,61.76
2019-01-18T10:14:15.198Z,60.95
2019-01-18T10:15:15.190Z,61.03
2019-01-18T10:16:15.166Z,61.13
2019-01-18T10:17:15.158Z,62.19
2019-01-18T10:18:15.155Z,62.68
2019-01-18T10:19:15.141Z,63.13
2019-01-18T10:20:15.131Z,62.89
2019-01-18T10:21:15.115Z,61.31
2019-01-18T10:22:15.108Z,60.89
2019-01-18T10:23:15.106Z,60.72
2019-01-18T10:24:15.080Z,60.82
2019-01-18T10:25:15.075Z,60.93
2019-01-18T10:26:15.068Z,59.96
2019-01-18T10:27:15.053Z,60.17
2019-01-18T10:28:15.071Z,60.27
2019-01-18T10:29:15.033Z,59.34
2019-01-18T10:30:15.021Z,59.21
2019-01-18T10:31:15.005Z,58.80
2019-01-18T10:32:14.994Z,59.11
2019-01-18T10:33:14.999Z,59.75
2019-01-18T10:34:14.979Z,59.96
2019-01-18T10:35:14.970Z,59.86
2019-01-18T10:36:14.965Z,60.56
2019-01-18T10:37:14.944Z,61.21
2019-01-18T10:38:14.934Z,60.25
2019-01-18T10:39:14.920Z,60.56
2019-01-18T10:40:14.912Z,60.10
2019-01-18T10:41:14.906Z,59.89
2019-01-18T10:42:14.887Z,60.51
2019-01-18T10:43:14.882Z,60.06
2019-01-18T10:44:14.871Z,61.10
2019-01-18T10:45:14.871Z,60.58
2019-01-18T10:46:14.863Z,61.49
2019-01-18T10:47:14.832Z,59.96
2019-01-18T10:48:14.823Z,60.58
2019-01-18T10:49:14.816Z,59.99
2019-01-18T10:50:14.806Z,60.98
2019-01-18T10:51:14.791Z,60.85
2019-01-18T10:52:14.817Z,60.98
2019-01-18T10:53:14.766Z,63.16
2019-01-18T10:54:14.765Z,63.85
2019-01-18T10:55:14.750Z,64.06
2019-01-18T10:56:14.742Z,63.41
2019-01-18T10:57:14.817Z,62.79
2019-01-18T10:58:14.769Z,62.06
2019-01-18T10:59:14.723Z,61.93
2019-01-18T11:00:14.706Z,61.00
2019-01-18T11:01:14.725Z,62.45
2019-01-18T11:02:14.682Z,61.72
2019-01-18T11:03:14.670Z,61.10
2019-01-18T11:04:14.657Z,61.13
2019-01-18T11:05:14.638Z,61.65
2019-01-18T11:06:14.628Z,61.47
2019-01-18T11:07:22.215Z,61.36
2019-01-18T11:08:17.521Z,61.29
2019-01-18T11:09:14.616Z,61.57
2019-01-18T11:10:14.582Z,60.85
2019-01-18T11:11:14.575Z,61.81
2019-01-18T11:12:14.569Z,62.64
2019-01-18T11:13:14.562Z,63.78
2019-01-18T11:14:14.539Z,61.91
2019-01-18T11:15:14.542Z,62.85
2019-01-18T11:16:14.523Z,63.75
2019-01-18T11:17:14.511Z,63.75
2019-01-18T11:18:14.506Z,63.62
2019-01-18T11:19:14.490Z,62.79
2019-01-18T11:20:14.474Z,61.65
2019-01-18T11:21:14.468Z,61.00
2019-01-18T11:22:14.461Z,61.21
2019-01-18T11:23:14.441Z,60.69
2019-01-18T11:24:14.439Z,61.18
2019-01-18T11:25:14.510Z,61.18
2019-01-18T11:26:14.417Z,58.56
2019-01-18T11:27:14.398Z,59.39
2019-01-18T11:28:14.390Z,57.73
2019-01-18T11:29:14.388Z,58.25
2019-01-18T11:30:14.371Z,58.54
2019-01-18T11:31:14.362Z,58.84
2019-01-18T11:32:14.348Z,58.23
2019-01-18T11:33:14.337Z,59.26
2019-01-18T11:34:14.338Z,57.37
2019-01-18T11:35:14.316Z,56.73
2019-01-18T11:36:14.336Z,56.52
2019-01-18T11:37:14.294Z,56.70
2019-01-18T11:38:14.278Z,56.18
2019-01-18T11:39:14.272Z,54.84
2019-01-18T11:40:14.266Z,56.93
2019-01-18T11:41:14.253Z,56.54
2019-01-18T11:42:14.249Z,57.09
2019-01-18T11:43:14.228Z,58.67
2019-01-18T11:44:14.214Z,57.12
2019-01-18T11:45:14.207Z,58.90
2019-01-18T11:46:14.209Z,58.64
2019-01-18T11:47:14.190Z,59.37
2019-01-18T11:48:14.178Z,60.22
2019-01-18T11:49:14.159Z,60.53
2019-01-18T11:50:14.156Z,60.88
2019-01-18T11:51:14.147Z,61.01
2019-01-18T11:52:14.133Z,62.98
2019-01-18T11:53:14.120Z,61.43
2019-01-18T11:54:14.110Z,61.04
2019-01-18T11:55:14.094Z,62.38
2019-01-18T11:56:14.099Z,63.84
2019-01-18T11:57:14.084Z,63.21
2019-01-18T11:58:14.077Z,64.15
2019-01-18T11:59:14.057Z,63.60
2019-01-18T12:00:14.040Z,62.36
2019-01-18T12:01:14.071Z,61.50
2019-01-18T12:02:16.163Z,61.22
2019-01-18T12:03:15.013Z,61.81
2019-01-18T12:04:13.999Z,63.06
2019-01-18T12:05:13.988Z,62.61
2019-01-18T12:06:13.989Z,61.24
2019-01-18T12:07:13.981Z,59.58
2019-01-18T12:08:13.961Z,57.06
2019-01-18T12:09:13.946Z,57.14
2019-01-18T12:10:13.942Z,57.48
2019-01-18T12:11:13.924Z,56.81
2019-01-18T12:12:13.960Z,56.29
2019-01-18T12:13:13.907Z,56.37
2019-01-18T12:14:13.891Z,55.82
2019-01-18T12:15:13.879Z,56.00
2019-01-18T12:16:13.873Z,54.82
2019-01-18T12:17:13.868Z,54.35
2019-01-18T12:18:13.855Z,53.22
2019-01-18T12:19:13.851Z,52.37
2019-01-18T12:20:13.830Z,52.22
2019-01-18T12:21:15.270Z,48.77
2019-01-18T12:22:13.809Z,48.72
2019-01-18T12:23:13.799Z,47.34
2019-01-18T12:24:13.795Z,46.36
2019-01-18T12:25:13.777Z,44.94
2019-01-18T12:26:13.759Z,45.43
2019-01-18T12:27:13.751Z,44.70
2019-01-18T12:28:13.745Z,44.37
2019-01-18T12:29:13.753Z,44.24
2019-01-18T12:30:13.746Z,42.40
2019-01-18T12:31:13.743Z,42.75
2019-01-18T12:32:13.700Z,44.31
2019-01-18T12:33:13.689Z,43.07
2019-01-18T12:34:13.675Z,44.17
2019-01-18T12:35:13.663Z,42.83
2019-01-18T12:36:13.656Z,43.14
2019-01-18T12:37:13.668Z,42.81
2019-01-18T12:38:13.631Z,43.12
2019-01-18T12:39:13.618Z,42.42
2019-01-18T12:40:13.613Z,41.99
2019-01-18T12:41:13.597Z,40.17
2019-01-18T12:42:13.629Z,41.56
2019-01-18T12:43:13.579Z,41.24
2019-01-18T12:44:13.563Z,39.19
2019-01-18T12:45:13.560Z,39.92
2019-01-18T12:46:13.546Z,39.92
2019-01-18T12:47:13.535Z,39.82
2019-01-18T12:48:13.547Z,41.17
2019-01-18T12:49:13.512Z,39.96
2019-01-18T12:50:13.498Z,41.64
2019-01-18T12:51:13.489Z,41.52
2019-01-18T12:52:13.484Z,40.70